Time;durP1;ratioP1;P1;durP2;ratioP2;P2;SDS_P1;SDS_P2;PMS_P1;PMS_P2;Temp;Humidity;BMP_temperature;BMP_pressure;BME280_temperature;BME280_humidity;BME280_pressure;Samples;Min_cycle;Max_cycle;Signal;HPM_P1;HPM_P2
2023/01/29 00:00:30;;;;;;;43.60;22.83;;;;;;;-2.07;99.43;103024.19;4954199;28;20039;-87
2023/01/29 00:02:56;;;;;;;40.05;22.42;;;;;;;-1.78;99.62;103068.78;4953957;29;20051;-85
2023/01/29 00:05:21;;;;;;;41.45;23.15;;;;;;;-1.84;99.51;103058.53;4954041;28;20027;-80
2023/01/29 00:07:47;;;;;;;39.38;22.05;;;;;;;-2.10;99.23;103012.31;4954051;29;20019;-80
2023/01/29 00:10:12;;;;;;;39.17;20.83;;;;;;;-1.88;99.08;103043.22;4953789;28;20034;-81
2023/01/29 00:12:38;;;;;;;33.78;20.15;;;;;;;-1.68;99.50;103079.13;4954166;29;20023;-81
2023/01/29 00:15:03;;;;;;;37.65;19.95;;;;;;;-1.99;99.04;103020.16;4952819;29;20472;-81
2023/01/29 00:17:29;;;;;;;37.00;21.75;;;;;;;-1.99;99.45;103006.66;4952041;29;20487;-82
2023/01/29 00:19:54;;;;;;;37.58;21.65;;;;;;;-2.38;99.40;102934.00;4952835;29;20114;-87
2023/01/29 00:22:19;;;;;;;39.85;21.92;;;;;;;-1.92;99.37;103004.31;4955108;28;20030;-89
2023/01/29 00:24:44;;;;;;;37.53;21.25;;;;;;;-1.85;99.22;103013.78;4957489;29;20102;-88
2023/01/29 00:27:10;;;;;;;36.83;21.80;;;;;;;-1.74;98.88;103026.69;4957582;28;20562;-89
2023/01/29 00:29:35;;;;;;;37.58;21.80;;;;;;;-1.59;99.05;103054.88;4957323;28;20039;-88
2023/01/29 00:32:00;;;;;;;36.53;20.80;;;;;;;-1.55;99.16;103055.81;4957633;28;20035;-86
2023/01/29 00:34:26;;;;;;;35.35;19.35;;;;;;;-1.55;98.85;103053.28;4957535;28;20023;-87
2023/01/29 00:36:51;;;;;;;32.05;19.42;;;;;;;-1.78;98.74;103013.06;4957147;29;20119;-88
2023/01/29 00:39:23;;;;;;;34.13;18.92;;;;;;;-1.76;98.64;103010.59;4957572;29;20039;-88
2023/01/29 00:47:34;;;;;;;35.63;20.15;;;;;;;-1.65;98.81;103029.44;4957286;29;20047;-85
2023/01/29 00:50:05;;;;;;;36.40;20.05;;;;;;;-2.14;99.03;102952.34;4957067;28;20031;-83
2023/01/29 00:52:30;;;;;;;33.35;19.50;;;;;;;-2.04;98.94;102983.78;4957017;28;20027;-86
2023/01/29 00:54:58;;;;;;;34.45;19.88;;;;;;;-2.03;99.40;102993.09;4957108;28;20464;-84
2023/01/29 00:57:25;;;;;;;34.97;18.60;;;;;;;-2.33;100.00;102940.91;4956983;28;20023;-82
2023/01/29 00:59:51;;;;;;;34.42;20.13;;;;;;;-1.98;100.00;103003.31;4956759;28;20035;-83
2023/01/29 01:05:02;;;;;;;34.70;19.88;;;;;;;-2.05;100.00;103015.84;4957091;29;20505;-81
2023/01/29 01:07:28;;;;;;;34.72;20.98;;;;;;;-2.17;100.00;102986.81;4956508;28;20114;-81
2023/01/29 01:12:37;;;;;;;35.05;20.33;;;;;;;-2.19;100.00;102981.72;4956938;29;20152;-80
2023/01/29 01:15:03;;;;;;;36.20;20.13;;;;;;;-2.34;100.00;102958.59;4956777;28;20471;-81
2023/01/29 01:17:28;;;;;;;37.75;20.23;;;;;;;-2.27;100.00;102959.56;4956427;28;20059;-80
2023/01/29 01:19:54;;;;;;;37.22;20.38;;;;;;;-2.15;100.00;102962.41;4956575;28;20031;-81
2023/01/29 01:22:19;;;;;;;34.72;19.50;;;;;;;-1.76;100.00;103008.94;4956500;28;20098;-84
2023/01/29 01:24:45;;;;;;;36.35;20.70;;;;;;;-1.88;99.88;102990.88;4956580;29;20025;-81
2023/01/29 01:27:11;;;;;;;37.33;20.80;;;;;;;-1.67;99.97;103018.41;4955984;29;20103;-79
2023/01/29 01:29:36;;;;;;;35.13;20.35;;;;;;;-2.06;99.73;102942.38;4956248;28;20027;-81
2023/01/29 01:32:02;;;;;;;33.72;18.80;;;;;;;-1.55;99.64;103026.28;4956347;28;20019;-81
2023/01/29 01:34:27;;;;;;;34.22;19.42;;;;;;;-1.53;99.65;103019.56;4955296;28;20035;-81
2023/01/29 01:36:54;;;;;;;34.50;19.67;;;;;;;-1.52;99.59;103022.94;4956309;28;20031;-81
2023/01/29 01:39:20;;;;;;;36.72;20.45;;;;;;;-1.71;99.37;102980.28;4956371;28;20114;-81
2023/01/29 01:41:45;;;;;;;33.25;18.63;;;;;;;-1.42;99.33;103024.00;4956280;28;20098;-80
2023/01/29 01:44:48;;;;;;;33.38;18.83;;;;;;;-1.40;99.29;103024.88;4956033;29;20075;-81
2023/01/29 01:47:16;;;;;;;34.97;19.63;;;;;;;-1.43;98.67;103018.09;4956055;29;20058;-82
2023/01/29 01:49:42;;;;;;;36.50;19.65;;;;;;;-1.42;98.90;103018.94;4955972;28;20042;-88
2023/01/29 01:52:08;;;;;;;34.05;20.13;;;;;;;-1.58;99.01;102988.19;4955372;28;20043;-88
2023/01/29 01:54:34;;;;;;;37.60;21.42;;;;;;;-1.61;98.76;102988.13;4955325;28;20041;-88
2023/01/29 01:57:14;;;;;;;37.08;21.42;;;;;;;-1.65;98.96;102988.91;4955863;29;20035;-88
2023/01/29 01:59:44;;;;;;;33.88;18.55;;;;;;;-1.88;98.86;102950.38;4954543;29;20109;-83
2023/01/29 02:10:40;;;;;;;35.90;20.05;;;;;;;-2.46;99.02;102859.59;4955994;29;20057;-89
2023/01/29 02:13:06;;;;;;;33.47;19.58;;;;;;;-1.42;98.92;103032.47;4955716;28;20403;-89
2023/01/29 02:15:32;;;;;;;35.50;19.83;;;;;;;-1.53;99.01;103006.91;4955596;28;20110;-88
2023/01/29 02:17:58;;;;;;;38.65;20.67;;;;;;;-1.37;98.65;103042.72;4955320;28;20031;-89
2023/01/29 02:20:27;;;;;;;34.63;19.15;;;;;;;-1.43;98.84;103029.91;4955618;28;20031;-87
2023/01/29 02:22:54;;;;;;;36.95;19.50;;;;;;;-1.29;98.80;103038.66;4955387;28;20027;-86
2023/01/29 02:25:25;;;;;;;34.40;18.88;;;;;;;-1.59;98.57;102985.63;4955452;28;20035;-88
2023/01/29 02:28:13;;;;;;;33.22;19.33;;;;;;;-1.23;98.46;103042.19;4955362;29;20488;-89
2023/01/29 02:31:29;;;;;;;36.80;20.13;;;;;;;-1.18;98.26;103047.31;4955300;28;20031;-88
2023/01/29 02:34:19;;;;;;;38.63;20.52;;;;;;;-1.16;97.73;103038.97;4896081;29;20089;-89
2023/01/29 02:36:56;;;;;;;38.80;21.38;;;;;;;-1.11;97.68;103035.66;4896107;29;20037;-89
2023/01/29 02:39:32;;;;;;;37.38;20.23;;;;;;;-1.13;98.13;103024.63;4880428;29;20041;-89
2023/01/29 02:42:29;;;;;;;37.20;21.08;;;;;;;-1.06;98.03;103036.63;4896202;29;20124;-88
2023/01/29 02:45:10;;;;;;;37.33;20.58;;;;;;;-1.02;97.69;103035.84;4895426;29;20200;-88
2023/01/29 02:47:57;;;;;;;36.25;20.40;;;;;;;-1.17;97.90;103001.75;4896032;29;20060;-87
2023/01/29 02:50:32;;;;;;;34.78;18.88;;;;;;;-1.01;97.61;103025.72;4896054;29;20044;-87
2023/01/29 02:53:07;;;;;;;37.33;20.13;;;;;;;-1.01;97.79;103033.31;4895816;29;20059;-89
2023/01/29 02:55:38;;;;;;;35.65;20.00;;;;;;;-0.97;97.15;103029.19;4895399;29;20040;-84
2023/01/29 02:58:32;;;;;;;35.17;20.02;;;;;;;-0.95;97.21;103035.16;4895667;29;20469;-82
2023/01/29 03:01:05;;;;;;;35.90;20.33;;;;;;;-1.26;97.31;102972.84;4858645;29;20045;-82
2023/01/29 03:03:41;;;;;;;35.55;19.63;;;;;;;-1.02;97.31;103002.88;4858343;29;20109;-81
2023/01/29 03:06:17;;;;;;;35.08;20.63;;;;;;;-1.01;97.51;103013.03;4858485;29;20518;-81
2023/01/29 03:09:11;;;;;;;36.90;19.65;;;;;;;-1.11;97.52;102987.47;4852619;29;20049;-81
2023/01/29 03:11:40;;;;;;;36.10;19.88;;;;;;;-0.93;97.57;103019.13;4911481;29;20063;-81
2023/01/29 03:14:22;;;;;;;34.28;18.73;;;;;;;-1.03;97.58;102999.47;4914584;29;20064;-81
2023/01/29 03:16:53;;;;;;;36.40;20.20;;;;;;;-0.88;97.54;103025.16;4898373;29;20052;-81
2023/01/29 03:19:30;;;;;;;35.47;20.35;;;;;;;-0.85;97.68;103023.50;4914599;29;20040;-83
2023/01/29 03:21:58;;;;;;;39.58;21.25;;;;;;;-1.18;97.45;102973.81;4914339;29;20091;-81
2023/01/29 03:33:25;;;;;;;38.17;21.52;;;;;;;-1.10;97.26;102956.22;4858383;29;20068;-81
2023/01/29 03:36:01;;;;;;;35.47;19.45;;;;;;;-0.93;97.19;102993.75;4858480;29;20128;-82
2023/01/29 03:38:30;;;;;;;37.55;20.25;;;;;;;-0.78;97.02;103018.59;4885501;29;20474;-82
2023/01/29 03:41:04;;;;;;;34.85;20.38;;;;;;;-0.97;97.07;102979.34;4895165;29;20043;-80
2023/01/29 03:43:51;;;;;;;36.50;20.88;;;;;;;-0.70;97.64;103021.25;4895353;29;20168;-81
2023/01/29 03:46:42;;;;;;;38.08;20.77;;;;;;;-1.06;97.78;102950.41;4895429;29;20072;-82
2023/01/29 03:49:28;;;;;;;39.38;21.08;;;;;;;-0.67;97.62;102995.94;4895299;29;20180;-81
2023/01/29 03:52:45;;;;;;;35.33;20.42;;;;;;;-0.64;97.29;102999.38;4895249;29;20053;-81
2023/01/29 03:55:21;;;;;;;37.88;20.98;;;;;;;-0.65;97.10;102995.13;4839214;29;20037;-80
2023/01/29 03:57:56;;;;;;;36.80;20.42;;;;;;;-0.65;96.99;102997.69;4841404;29;20538;-82
2023/01/29 04:00:27;;;;;;;35.38;20.17;;;;;;;-0.98;97.08;102941.28;4845972;29;20054;-81
2023/01/29 04:03:25;;;;;;;38.00;20.80;;;;;;;-0.61;96.99;102988.44;4880160;29;20037;-82
2023/01/29 04:06:04;;;;;;;39.05;20.25;;;;;;;-0.79;96.78;102950.03;4879788;29;20163;-82
2023/01/29 04:08:34;;;;;;;38.20;22.27;;;;;;;-0.57;97.04;102977.53;4879807;29;20047;-82
2023/01/29 04:11:10;;;;;;;34.72;20.35;;;;;;;-0.59;96.95;102984.22;4879925;29;20029;-87
2023/01/29 04:13:37;;;;;;;38.85;20.33;;;;;;;-0.77;96.82;102944.19;4880153;29;20096;-86
2023/01/29 04:16:07;;;;;;;38.30;21.23;;;;;;;-0.57;97.04;102971.59;4880057;29;20129;-89
2023/01/29 04:18:33;;;;;;;40.67;22.45;;;;;;;-0.56;96.91;102973.31;4864365;29;20089;-89
2023/01/29 04:21:00;;;;;;;40.95;22.13;;;;;;;-0.56;96.67;102973.31;4880128;29;20037;-88
2023/01/29 04:23:26;;;;;;;40.63;22.88;;;;;;;-0.80;96.89;102933.97;4879708;29;20089;-87
2023/01/29 04:26:23;;;;;;;39.53;23.02;;;;;;;-0.60;97.13;102973.22;4879603;29;20029;-89
2023/01/29 04:29:37;;;;;;;42.05;22.58;;;;;;;-0.60;97.20;102973.22;4916536;29;20074;-87
2023/01/29 04:32:22;;;;;;;40.38;22.13;;;;;;;-0.66;97.26;102967.22;4898307;29;20108;-89
2023/01/29 04:35:23;;;;;;;42.15;23.65;;;;;;;-0.60;97.40;102964.75;4898019;29;20037;-89
2023/01/29 04:38:17;;;;;;;43.38;24.63;;;;;;;-1.39;97.22;102822.19;4898456;29;20032;-89
2023/01/29 04:41:04;;;;;;;44.83;22.13;;;;;;;-0.56;97.45;102950.47;4893550;29;20505;-88
2023/01/29 04:43:50;;;;;;;43.38;24.20;;;;;;;-0.54;97.40;102948.81;4883609;29;20064;-85
2023/01/29 04:46:19;;;;;;;42.55;23.45;;;;;;;-0.55;97.45;102944.56;4879467;29;20116;-88
2023/01/29 04:48:51;;;;;;;40.70;23.48;;;;;;;-0.52;97.45;102936.97;4879090;29;20056;-85
2023/01/29 04:51:22;;;;;;;43.25;24.70;;;;;;;-0.53;97.73;102925.13;4879309;29;20041;-89
2023/01/29 04:53:58;;;;;;;43.53;24.88;;;;;;;-0.60;97.84;102914.00;4879412;29;20605;-89
2023/01/29 04:56:34;;;;;;;44.75;24.20;;;;;;;-0.52;97.65;102917.53;4879111;29;20382;-89
2023/01/29 04:59:06;;;;;;;49.45;26.48;;;;;;;-1.19;97.31;102799.72;4879153;29;20037;-85
2023/01/29 05:01:34;;;;;;;45.20;24.67;;;;;;;-0.57;97.94;102910.69;4879214;29;20056;-88
2023/01/29 05:04:13;;;;;;;45.72;25.60;;;;;;;-1.34;97.75;102780.06;4879035;29;20116;-88
2023/01/29 05:06:40;;;;;;;45.97;25.35;;;;;;;-0.49;97.82;102917.59;4879031;29;20632;-87
2023/01/29 05:09:06;;;;;;;44.38;25.33;;;;;;;-1.34;97.57;102797.78;4931670;29;20058;-86
2023/01/29 05:11:33;;;;;;;46.78;26.10;;;;;;;-1.11;97.74;102817.63;4937452;29;20024;-88
2023/01/29 05:14:03;;;;;;;44.17;26.10;;;;;;;-0.46;97.91;102924.41;4937678;29;20091;-86
2023/01/29 05:16:40;;;;;;;50.90;27.20;;;;;;;-0.63;97.88;102888.59;4937459;29;20079;-88
2023/01/29 05:19:11;;;;;;;44.78;26.70;;;;;;;-0.41;97.80;102920.25;4937373;29;20039;-87
2023/01/29 05:21:38;;;;;;;51.25;27.52;;;;;;;-0.41;98.22;102915.16;4937371;29;20028;-86
2023/01/29 05:24:21;;;;;;;44.97;26.30;;;;;;;-0.40;97.99;102906.72;4937523;29;20035;-88
2023/01/29 05:29:32;;;;;;;48.83;27.73;;;;;;;-0.40;97.60;102884.72;4937473;29;20156;-88
2023/01/29 05:31:57;;;;;;;49.80;27.00;;;;;;;-0.39;97.85;102883.06;4937356;29;20102;-87
2023/01/29 05:34:23;;;;;;;46.78;26.88;;;;;;;-0.39;97.96;102886.47;4937344;29;20031;-89
2023/01/29 05:36:49;;;;;;;46.40;26.20;;;;;;;-0.63;97.87;102842.94;4937322;29;20035;-88
2023/01/29 05:39:14;;;;;;;51.15;28.48;;;;;;;-0.57;98.01;102865.88;4937150;29;20444;-89
2023/01/29 05:41:40;;;;;;;49.33;29.13;;;;;;;-0.49;98.25;102871.03;4937252;29;20487;-87
2023/01/29 05:44:05;;;;;;;47.53;28.58;;;;;;;-0.34;98.05;102895.00;4937175;29;20035;-89
2023/01/29 05:46:30;;;;;;;50.90;28.13;;;;;;;-0.31;98.41;102901.78;4937114;29;20476;-88
2023/01/29 05:48:56;;;;;;;48.70;27.58;;;;;;;-0.46;98.18;102877.03;4936998;29;20444;-88
2023/01/29 05:51:22;;;;;;;48.45;27.20;;;;;;;-0.57;98.03;102862.47;4937160;29;20037;-81
2023/01/29 05:53:47;;;;;;;47.63;27.55;;;;;;;-0.42;98.05;102883.84;4936861;29;20110;-81
2023/01/29 05:56:12;;;;;;;47.88;27.60;;;;;;;-0.27;98.00;102913.72;4936551;29;20044;-81
2023/01/29 05:58:38;;;;;;;50.45;28.08;;;;;;;-0.40;98.19;102884.72;4936666;29;20061;-81
2023/01/29 06:01:24;;;;;;;51.33;29.17;;;;;;;-0.23;98.31;102918.00;4936772;29;20019;-82
2023/01/29 06:03:49;;;;;;;51.03;28.45;;;;;;;-0.59;97.93;102849.75;4936667;29;20056;-81
2023/01/29 06:06:15;;;;;;;50.00;29.30;;;;;;;-0.41;98.07;102888.09;4935798;29;20050;-82
2023/01/29 06:08:41;;;;;;;50.08;29.52;;;;;;;-0.17;98.15;102929.94;4936483;29;20035;-81
2023/01/29 06:11:09;;;;;;;49.22;27.77;;;;;;;-0.54;97.85;102852.38;4936817;29;20028;-86
2023/01/29 06:13:34;;;;;;;52.30;29.42;;;;;;;-0.24;98.13;102906.13;4936625;29;20024;-84
2023/01/29 06:15:59;;;;;;;49.35;28.95;;;;;;;-0.14;98.04;102922.38;4936438;29;20384;-86
2023/01/29 06:18:25;;;;;;;53.20;29.73;;;;;;;-0.59;97.59;102853.16;4935277;29;20061;-81
2023/01/29 06:20:50;;;;;;;49.97;28.20;;;;;;;-0.19;97.63;102919.78;4935963;29;20035;-85
2023/01/29 06:23:16;;;;;;;53.80;30.55;;;;;;;-0.14;97.32;102935.06;4936374;29;20032;-82
2023/01/29 06:25:41;;;;;;;51.65;28.73;;;;;;;-0.09;97.47;102933.47;4936270;29;20143;-83
2023/01/29 06:28:06;;;;;;;52.13;29.52;;;;;;;-0.07;97.69;102909.78;4935888;29;20038;-82
2023/01/29 06:30:32;;;;;;;49.58;29.23;;;;;;;-0.15;97.32;102882.56;4936242;29;20037;-82
2023/01/29 06:32:58;;;;;;;53.17;29.67;;;;;;;-0.27;97.62;102857.88;4936093;29;20051;-81
2023/01/29 06:35:26;;;;;;;50.13;28.67;;;;;;;-0.37;97.44;102835.72;4936322;29;20028;-81
2023/01/29 06:37:52;;;;;;;51.67;29.08;;;;;;;-0.05;97.72;102879.31;4936199;29;20039;-81
2023/01/29 06:40:17;;;;;;;50.78;29.70;;;;;;;-0.05;97.66;102890.34;4935967;29;20035;-81
2023/01/29 06:42:43;;;;;;;50.60;29.38;;;;;;;-0.16;97.79;102875.78;4935883;29;20028;-81
2023/01/29 06:45:09;;;;;;;51.53;29.63;;;;;;;-0.03;97.64;102896.28;4936002;29;20055;-80
2023/01/29 06:47:34;;;;;;;50.53;29.00;;;;;;;-0.25;97.63;102853.66;4936195;29;20035;-82
2023/01/29 06:50:00;;;;;;;50.85;29.98;;;;;;;-0.04;97.37;102888.66;4935912;29;20383;-82
2023/01/29 06:52:27;;;;;;;49.50;28.55;;;;;;;-0.17;97.62;102864.78;4936103;29;20051;-81
2023/01/29 06:54:53;;;;;;;48.65;28.85;;;;;;;-0.01;97.63;102896.31;4935928;29;20024;-82
2023/01/29 06:57:19;;;;;;;47.28;28.23;;;;;;;-0.21;97.60;102855.38;4935469;29;20039;-81
2023/01/29 06:59:44;;;;;;;48.88;28.27;;;;;;;-0.31;97.42;102838.31;4934862;29;20034;-81
2023/01/29 07:02:09;;;;;;;52.22;30.33;;;;;;;0.02;97.54;102888.75;4935777;29;20373;-82
2023/01/29 07:04:36;;;;;;;51.63;29.58;;;;;;;-0.01;97.42;102893.75;4935531;29;20094;-82
2023/01/29 07:07:02;;;;;;;49.33;30.02;;;;;;;-0.38;97.38;102822.19;4935693;29;20028;-82
2023/01/29 07:09:27;;;;;;;52.80;29.63;;;;;;;-0.32;97.46;102832.41;4935590;29;20090;-81
2023/01/29 07:11:52;;;;;;;49.17;28.88;;;;;;;-0.57;97.72;102783.81;4935534;29;20035;-81
2023/01/29 07:14:18;;;;;;;52.42;29.88;;;;;;;-0.32;97.39;102837.47;4935627;29;20056;-81
2023/01/29 07:16:43;;;;;;;51.15;29.40;;;;;;;0.08;97.29;102896.44;4935629;29;20028;-80
2023/01/29 07:19:08;;;;;;;54.83;31.08;;;;;;;-0.15;97.50;102855.50;4935668;29;20361;-82
2023/01/29 07:21:34;;;;;;;50.05;29.58;;;;;;;0.11;97.17;102896.50;4935644;29;20523;-81
2023/01/29 07:23:59;;;;;;;50.05;29.38;;;;;;;0.06;97.05;102889.63;4935610;29;20027;-80
2023/01/29 07:26:24;;;;;;;51.30;30.25;;;;;;;0.13;96.98;102896.50;4934336;29;20380;-82
2023/01/29 07:28:50;;;;;;;51.50;29.92;;;;;;;-0.09;97.15;102862.34;4935314;29;20042;-81
2023/01/29 07:31:15;;;;;;;51.40;29.83;;;;;;;0.02;96.77;102870.97;4935735;29;20031;-81
2023/01/29 07:33:44;;;;;;;51.70;30.35;;;;;;;0.16;96.72;102888.91;4938867;29;20468;-81
2023/01/29 07:36:10;;;;;;;50.88;30.05;;;;;;;-0.09;96.47;102842.03;4939460;29;20027;-79
2023/01/29 07:38:35;;;;;;;49.70;29.33;;;;;;;0.18;96.48;102880.47;4938146;29;20042;-81
2023/01/29 07:41:01;;;;;;;51.25;30.15;;;;;;;-0.16;96.39;102825.84;4939164;29;20028;-80
2023/01/29 07:43:26;;;;;;;52.70;29.25;;;;;;;0.09;96.60;102872.72;4939114;29;20036;-81
2023/01/29 07:45:51;;;;;;;51.03;30.30;;;;;;;0.06;96.58;102862.53;4939417;29;20036;-80
2023/01/29 07:48:20;;;;;;;52.03;30.70;;;;;;;0.10;96.95;102871.03;4937934;29;20125;-78
2023/01/29 07:50:53;;;;;;;46.28;28.15;;;;;;;-0.10;96.92;102837.75;4939193;29;20111;-80
2023/01/29 07:53:18;;;;;;;50.17;29.88;;;;;;;0.22;96.83;102894.09;4938767;29;20476;-80
2023/01/29 07:55:44;;;;;;;49.78;29.15;;;;;;;0.03;96.77;102851.50;4938964;29;20038;-80
2023/01/29 07:58:11;;;;;;;55.63;30.05;;;;;;;0.16;96.07;102871.13;4938780;29;20031;-83
2023/01/29 08:00:37;;;;;;;48.63;29.58;;;;;;;0.16;96.80;102866.06;4939135;29;20094;-84
2023/01/29 08:03:09;;;;;;;50.15;29.65;;;;;;;0.05;96.12;102843.06;4938755;29;20551;-86
2023/01/29 08:05:35;;;;;;;48.97;29.13;;;;;;;0.28;96.25;102886.53;4938890;29;20047;-86
2023/01/29 08:08:00;;;;;;;47.03;29.27;;;;;;;0.33;96.37;102877.28;4937355;29;20031;-85
2023/01/29 08:10:26;;;;;;;46.50;28.23;;;;;;;0.36;96.39;102884.09;4938740;29;20031;-85
2023/01/29 08:12:56;;;;;;;50.15;29.98;;;;;;;0.27;96.00;102867.03;4938918;29;20075;-85
2023/01/29 08:15:22;;;;;;;50.30;29.25;;;;;;;0.19;96.01;102851.69;4938671;29;20396;-84
2023/01/29 08:17:48;;;;;;;53.75;29.42;;;;;;;0.08;95.60;102832.94;4939261;29;20399;-84
2023/01/29 08:20:14;;;;;;;49.25;28.92;;;;;;;0.04;95.23;102822.72;4939389;29;20032;-87
2023/01/29 08:22:39;;;;;;;51.42;29.58;;;;;;;0.31;95.61;102848.47;4938381;29;20023;-86
2023/01/29 08:25:05;;;;;;;46.80;28.17;;;;;;;0.41;95.49;102859.59;4938652;29;20035;-84
2023/01/29 08:27:30;;;;;;;48.78;29.08;;;;;;;0.43;95.63;102860.47;4938377;29;20028;-86
2023/01/29 08:29:55;;;;;;;46.80;29.27;;;;;;;0.45;95.38;102852.00;4938323;29;20036;-85
2023/01/29 08:32:21;;;;;;;48.28;28.10;;;;;;;0.38;95.20;102839.22;4938253;29;20043;-86
2023/01/29 08:34:46;;;;;;;49.83;27.75;;;;;;;-0.01;95.01;102765.09;4938325;29;20030;-85
2023/01/29 08:37:11;;;;;;;45.78;28.30;;;;;;;0.46;94.91;102835.91;4938249;29;20365;-89
2023/01/29 08:39:36;;;;;;;49.30;27.88;;;;;;;0.49;95.19;102838.53;4938416;29;20032;-87
2023/01/29 08:42:02;;;;;;;51.35;29.52;;;;;;;0.49;94.57;102824.94;4938182;29;20028;-80
2023/01/29 08:44:27;;;;;;;47.60;27.45;;;;;;;0.07;94.91;102751.63;4954420;28;20513;-81
2023/01/29 08:46:52;;;;;;;47.00;28.17;;;;;;;0.56;94.61;102827.56;4957939;29;20023;-81
2023/01/29 08:49:18;;;;;;;47.50;29.70;;;;;;;0.61;94.20;102831.84;4957139;29;20035;-81
2023/01/29 08:51:43;;;;;;;46.42;28.27;;;;;;;0.48;94.59;102802.88;4957311;28;20023;-80
2023/01/29 08:54:08;;;;;;;43.65;27.20;;;;;;;0.42;94.11;102790.13;4957236;29;20160;-79
2023/01/29 08:56:34;;;;;;;45.65;26.27;;;;;;;0.54;94.03;102791.09;4957319;29;20154;-81
2023/01/29 08:58:59;;;;;;;44.17;27.88;;;;;;;0.78;94.12;102831.16;4956891;29;20110;-88
2023/01/29 09:01:24;;;;;;;44.45;27.15;;;;;;;0.57;93.28;102783.50;4957306;28;20038;-90
2023/01/29 09:03:51;;;;;;;42.42;26.45;;;;;;;0.96;93.13;102835.56;4956715;29;20047;-87
2023/01/29 09:06:16;;;;;;;44.70;27.63;;;;;;;1.01;92.27;102835.63;4956905;28;20027;-89
2023/01/29 09:08:42;;;;;;;41.85;26.05;;;;;;;0.63;91.28;102769.16;4957281;29;20037;-94
2023/01/29 09:11:07;;;;;;;42.60;25.70;;;;;;;1.00;92.21;102834.78;4957329;29;20102;-88
2023/01/29 09:13:33;;;;;;;42.80;25.98;;;;;;;0.68;91.83;102762.41;4956912;28;20033;-87
2023/01/29 09:16:00;;;;;;;42.47;26.40;;;;;;;0.97;91.40;102809.28;4956486;28;20533;-80
2023/01/29 09:18:27;;;;;;;45.20;27.00;;;;;;;0.91;91.41;102801.63;4957064;28;20024;-89
2023/01/29 09:20:53;;;;;;;41.78;26.45;;;;;;;0.91;91.04;102782.97;4956693;28;20051;-86
2023/01/29 09:23:18;;;;;;;44.63;25.77;;;;;;;1.02;90.90;102802.56;4955490;29;20062;-88
2023/01/29 09:25:44;;;;;;;42.55;26.23;;;;;;;0.94;90.39;102781.28;4956534;28;20404;-88
2023/01/29 09:28:09;;;;;;;40.65;25.30;;;;;;;1.21;90.73;102821.38;4954965;29;20054;-89
2023/01/29 09:30:36;;;;;;;40.78;25.95;;;;;;;1.18;90.49;102813.72;4956032;28;20038;-88
2023/01/29 09:33:03;;;;;;;40.88;26.88;;;;;;;1.18;90.29;102808.63;4956391;28;20106;-91
2023/01/29 09:35:28;;;;;;;38.42;24.88;;;;;;;1.04;90.07;102783.06;4956697;28;20058;-89
2023/01/29 09:37:54;;;;;;;41.80;25.40;;;;;;;1.10;89.60;102795.84;4956535;28;20031;-89
2023/01/29 09:40:40;;;;;;;39.42;26.05;;;;;;;1.30;90.54;102823.16;4956266;28;20031;-85
2023/01/29 09:43:23;;;;;;;38.95;25.15;;;;;;;1.36;89.76;102826.56;4956090;28;20383;-88
2023/01/29 09:45:56;;;;;;;39.83;25.65;;;;;;;1.41;90.13;102824.06;4956074;28;20089;-86
2023/01/29 09:48:26;;;;;;;42.35;25.08;;;;;;;1.43;89.30;102820.69;4956294;28;20379;-82
2023/01/29 09:50:55;;;;;;;36.08;23.85;;;;;;;1.42;88.62;102821.53;4956132;28;20039;-83
2023/01/29 09:53:39;;;;;;;34.75;23.55;;;;;;;1.49;88.98;102824.13;4956093;28;20032;-84
2023/01/29 09:56:16;;;;;;;38.85;24.00;;;;;;;1.49;88.16;102816.50;4955149;28;20118;-83
2023/01/29 09:58:42;;;;;;;41.60;24.63;;;;;;;1.47;88.14;102813.06;4956036;28;20038;-82
2023/01/29 10:01:15;;;;;;;37.22;24.92;;;;;;;1.52;87.75;102819.91;4955989;28;20065;-82
2023/01/29 10:03:56;;;;;;;37.78;24.95;;;;;;;1.57;88.09;102819.91;4955696;28;20043;-82
2023/01/29 10:06:39;;;;;;;36.80;24.23;;;;;;;1.63;88.25;102830.16;4955808;29;20054;-84
2023/01/29 10:09:25;;;;;;;37.55;23.83;;;;;;;1.63;87.26;102828.44;4955547;29;20241;-84
2023/01/29 10:12:28;;;;;;;37.28;23.83;;;;;;;1.66;87.49;102827.59;4955673;29;20395;-86
2023/01/29 10:15:05;;;;;;;37.80;23.55;;;;;;;1.67;87.47;102826.75;4955378;29;20031;-83
2023/01/29 10:17:47;;;;;;;36.20;23.20;;;;;;;1.50;87.18;102788.50;4955339;29;20031;-82
2023/01/29 10:20:34;;;;;;;36.22;23.35;;;;;;;1.49;86.80;102785.94;4955557;28;20039;-83
2023/01/29 10:23:31;;;;;;;36.05;21.77;;;;;;;1.69;86.91;102817.47;4954256;29;20031;-84
2023/01/29 10:25:56;;;;;;;36.58;22.95;;;;;;;1.52;86.21;102786.81;4914053;29;20048;-82
2023/01/29 10:28:28;;;;;;;36.67;22.70;;;;;;;1.73;86.48;102821.72;4915526;29;20028;-83
2023/01/29 10:30:58;;;;;;;33.65;21.90;;;;;;;1.68;85.81;102813.22;4915379;29;20445;-81
2023/01/29 10:33:30;;;;;;;34.38;22.73;;;;;;;1.70;86.45;102816.63;4915020;29;20103;-83
2023/01/29 10:36:01;;;;;;;34.55;22.00;;;;;;;1.72;86.36;102817.47;4915247;29;20040;-80
2023/01/29 10:38:26;;;;;;;33.90;20.95;;;;;;;1.77;85.85;102820.91;4915017;29;20164;-81
2023/01/29 10:41:20;;;;;;;33.58;20.52;;;;;;;1.60;86.33;102781.75;4899135;29;20028;-82
2023/01/29 10:44:11;;;;;;;34.08;21.10;;;;;;;1.88;86.43;102810.78;4914244;29;20040;-82
2023/01/29 10:47:06;;;;;;;33.67;21.35;;;;;;;1.78;85.48;102793.75;4898928;29;20140;-83
2023/01/29 10:49:53;;;;;;;34.60;21.83;;;;;;;1.92;85.81;102808.22;4914946;29;20047;-83
2023/01/29 10:52:21;;;;;;;34.20;22.05;;;;;;;2.00;85.65;102809.13;4914736;29;20491;-82
2023/01/29 10:54:49;;;;;;;31.33;20.08;;;;;;;2.08;85.79;102798.13;4898956;29;20489;-84
2023/01/29 10:57:36;;;;;;;30.35;19.42;;;;;;;2.12;85.05;102787.94;4914772;29;20039;-84
2023/01/29 11:00:16;;;;;;;31.55;19.90;;;;;;;2.19;84.97;102787.13;4914785;29;20110;-85
2023/01/29 11:02:45;;;;;;;34.38;19.83;;;;;;;2.04;84.09;102746.28;4934458;29;20085;-83
2023/01/29 11:05:18;;;;;;;32.67;20.23;;;;;;;2.17;84.07;102760.78;4954649;28;20741;-85
2023/01/29 11:07:44;;;;;;;29.10;19.60;;;;;;;2.11;83.83;102742.06;4953406;28;20034;-84
2023/01/29 11:10:16;;;;;;;31.05;19.85;;;;;;;2.33;83.70;102763.34;4954568;28;20395;-84
2023/01/29 11:12:43;;;;;;;31.52;20.17;;;;;;;2.37;83.52;102758.28;4954922;28;20495;-83
2023/01/29 11:15:20;;;;;;;32.65;19.80;;;;;;;2.44;83.32;102741.28;4954731;28;20027;-81
2023/01/29 11:18:04;;;;;;;32.08;20.38;;;;;;;2.59;83.25;102738.75;4954492;28;20023;-81
2023/01/29 11:20:31;;;;;;;34.58;19.90;;;;;;;2.69;83.06;102731.94;4954913;29;20020;-81
2023/01/29 11:22:58;;;;;;;34.60;20.38;;;;;;;2.54;82.53;102692.81;4954761;28;20023;-80
2023/01/29 11:25:24;;;;;;;27.08;18.88;;;;;;;2.51;82.38;102686.88;4954591;28;20066;-83
2023/01/29 11:27:59;;;;;;;32.67;19.67;;;;;;;2.80;82.14;102722.59;4954602;28;20115;-83
2023/01/29 11:30:37;;;;;;;31.10;19.65;;;;;;;2.86;82.39;102712.41;4953166;29;20089;-81
2023/01/29 11:33:13;;;;;;;28.48;18.80;;;;;;;2.59;81.37;102652.03;4954212;28;20364;-79
2023/01/29 11:35:39;;;;;;;31.05;19.00;;;;;;;2.81;80.63;102674.13;4954567;28;20031;-81
2023/01/29 11:38:27;;;;;;;29.98;19.52;;;;;;;2.93;80.49;102696.19;4954230;29;20039;-82
2023/01/29 11:41:05;;;;;;;32.03;19.52;;;;;;;2.73;81.05;102663.06;4953139;29;20394;-78
2023/01/29 11:43:31;;;;;;;27.38;18.65;;;;;;;2.96;80.87;102698.78;4954503;28;20526;-77
2023/01/29 11:46:01;;;;;;;31.08;19.05;;;;;;;2.92;80.15;102696.22;4954656;28;20042;-80
2023/01/29 11:48:38;;;;;;;30.40;18.95;;;;;;;2.84;81.04;102680.91;4954368;28;20023;-81
2023/01/29 11:51:04;;;;;;;29.75;19.13;;;;;;;2.91;80.97;102682.59;4954375;28;20032;-79
2023/01/29 11:53:42;;;;;;;29.77;19.67;;;;;;;2.92;81.15;102674.09;4952826;29;20035;-83
2023/01/29 11:56:28;;;;;;;30.10;19.83;;;;;;;2.99;80.89;102663.03;4953354;29;20078;-82
2023/01/29 11:58:56;;;;;;;31.17;20.08;;;;;;;3.04;79.67;102661.31;4954954;28;20392;-83
2023/01/29 12:01:35;;;;;;;30.48;20.00;;;;;;;2.83;80.01;102607.78;4954265;28;20086;-82